sensor_id;sensor_type;location;lat;lon;timestamp;P1;durP1;ratioP1;P2;durP2;ratioP2
7497;SDS011;3790;48.806;9.140;2023-03-01T00:04:40;14.17;;;8.80;;
7497;SDS011;3790;48.806;9.140;2023-03-01T00:09:41;17.83;;;10.60;;
7497;SDS011;3790;48.806;9.140;2023-03-01T00:14:41;14.50;;;8.90;;
7497;SDS011;3790;48.806;9.140;2023-03-01T00:19:42;20.03;;;10.17;;
7497;SDS011;3790;48.806;9.140;2023-03-01T00:24:42;12.27;;;8.60;;
7497;SDS011;3790;48.806;9.140;2023-03-01T00:29:43;17.67;;;10.37;;
7497;SDS011;3790;48.806;9.140;2023-03-01T00:34:43;19.17;;;11.33;;
7497;SDS011;3790;48.806;9.140;2023-03-01T00:39:54;14.77;;;9.43;;
7497;SDS011;3790;48.806;9.140;2023-03-01T00:44:54;19.30;;;10.50;;
7497;SDS011;3790;48.806;9.140;2023-03-01T00:49:55;15.57;;;9.07;;
7497;SDS011;3790;48.806;9.140;2023-03-01T00:54:55;16.30;;;9.13;;
7497;SDS011;3790;48.806;9.140;2023-03-01T00:59:57;13.90;;;8.80;;
7497;SDS011;3790;48.806;9.140;2023-03-01T01:04:58;13.10;;;8.87;;
7497;SDS011;3790;48.806;9.140;2023-03-01T01:09:59;16.17;;;9.57;;
7497;SDS011;3790;48.806;9.140;2023-03-01T01:14:59;13.43;;;9.03;;
7497;SDS011;3790;48.806;9.140;2023-03-01T01:20:00;19.23;;;9.77;;
7497;SDS011;3790;48.806;9.140;2023-03-01T01:25:00;17.40;;;10.07;;
7497;SDS011;3790;48.806;9.140;2023-03-01T01:30:01;14.47;;;9.23;;
7497;SDS011;3790;48.806;9.140;2023-03-01T01:35:02;15.30;;;9.60;;
7497;SDS011;3790;48.806;9.140;2023-03-01T01:40:03;18.40;;;10.37;;
7497;SDS011;3790;48.806;9.140;2023-03-01T01:50:27;15.03;;;9.53;;
7497;SDS011;3790;48.806;9.140;2023-03-01T01:55:38;16.10;;;10.23;;
7497;SDS011;3790;48.806;9.140;2023-03-01T02:00:42;16.97;;;10.00;;
7497;SDS011;3790;48.806;9.140;2023-03-01T02:05:45;16.17;;;9.93;;
7497;SDS011;3790;48.806;9.140;2023-03-01T02:10:54;20.63;;;9.97;;
7497;SDS011;3790;48.806;9.140;2023-03-01T02:15:55;20.53;;;10.07;;
7497;SDS011;3790;48.806;9.140;2023-03-01T02:21:00;14.57;;;9.40;;
7497;SDS011;3790;48.806;9.140;2023-03-01T02:31:36;19.23;;;9.50;;
7497;SDS011;3790;48.806;9.140;2023-03-01T02:36:51;15.43;;;9.13;;
7497;SDS011;3790;48.806;9.140;2023-03-01T02:41:54;15.30;;;9.87;;
7497;SDS011;3790;48.806;9.140;2023-03-01T02:46:56;16.00;;;8.90;;
7497;SDS011;3790;48.806;9.140;2023-03-01T02:57:28;13.83;;;9.50;;
7497;SDS011;3790;48.806;9.140;2023-03-01T03:02:31;15.30;;;8.97;;
7497;SDS011;3790;48.806;9.140;2023-03-01T03:07:41;14.30;;;9.03;;
7497;SDS011;3790;48.806;9.140;2023-03-01T03:12:43;14.13;;;8.47;;
7497;SDS011;3790;48.806;9.140;2023-03-01T03:17:43;13.97;;;8.83;;
7497;SDS011;3790;48.806;9.140;2023-03-01T03:22:45;21.53;;;10.33;;
7497;SDS011;3790;48.806;9.140;2023-03-01T03:27:50;14.60;;;8.77;;
7497;SDS011;3790;48.806;9.140;2023-03-01T03:32:58;13.67;;;8.47;;
7497;SDS011;3790;48.806;9.140;2023-03-01T03:38:00;14.10;;;8.70;;
7497;SDS011;3790;48.806;9.140;2023-03-01T03:43:04;14.47;;;9.33;;
7497;SDS011;3790;48.806;9.140;2023-03-01T03:48:12;15.83;;;9.07;;
7497;SDS011;3790;48.806;9.140;2023-03-01T03:53:14;12.13;;;7.93;;
7497;SDS011;3790;48.806;9.140;2023-03-01T03:58:15;17.00;;;9.33;;
7497;SDS011;3790;48.806;9.140;2023-03-01T04:03:17;14.93;;;9.13;;
7497;SDS011;3790;48.806;9.140;2023-03-01T04:08:19;13.33;;;8.60;;
7497;SDS011;3790;48.806;9.140;2023-03-01T04:13:21;12.90;;;8.73;;
7497;SDS011;3790;48.806;9.140;2023-03-01T04:18:23;12.60;;;9.00;;
7497;SDS011;3790;48.806;9.140;2023-03-01T04:23:25;12.20;;;8.90;;
7497;SDS011;3790;48.806;9.140;2023-03-01T04:28:26;13.87;;;8.70;;
7497;SDS011;3790;48.806;9.140;2023-03-01T04:33:28;14.23;;;8.70;;
7497;SDS011;3790;48.806;9.140;2023-03-01T04:38:29;17.03;;;9.90;;
7497;SDS011;3790;48.806;9.140;2023-03-01T04:43:29;13.20;;;8.73;;
7497;SDS011;3790;48.806;9.140;2023-03-01T04:48:30;15.33;;;9.30;;
7497;SDS011;3790;48.806;9.140;2023-03-01T04:53:33;18.67;;;9.30;;
7497;SDS011;3790;48.806;9.140;2023-03-01T04:58:36;17.50;;;10.10;;
7497;SDS011;3790;48.806;9.140;2023-03-01T05:03:36;14.70;;;8.87;;
7497;SDS011;3790;48.806;9.140;2023-03-01T05:08:37;12.87;;;8.50;;
7497;SDS011;3790;48.806;9.140;2023-03-01T05:13:39;14.27;;;9.40;;
7497;SDS011;3790;48.806;9.140;2023-03-01T05:18:40;20.63;;;9.53;;
7497;SDS011;3790;48.806;9.140;2023-03-01T05:23:41;14.60;;;8.77;;
7497;SDS011;3790;48.806;9.140;2023-03-01T05:28:41;15.37;;;9.40;;
7497;SDS011;3790;48.806;9.140;2023-03-01T05:33:42;14.03;;;8.20;;
7497;SDS011;3790;48.806;9.140;2023-03-01T05:38:43;18.07;;;9.57;;
7497;SDS011;3790;48.806;9.140;2023-03-01T05:43:44;18.47;;;9.83;;
7497;SDS011;3790;48.806;9.140;2023-03-01T05:48:44;14.00;;;9.43;;
7497;SDS011;3790;48.806;9.140;2023-03-01T05:53:45;13.70;;;9.57;;
7497;SDS011;3790;48.806;9.140;2023-03-01T05:58:47;14.93;;;9.20;;
7497;SDS011;3790;48.806;9.140;2023-03-01T06:03:49;14.27;;;9.67;;
7497;SDS011;3790;48.806;9.140;2023-03-01T06:08:50;13.07;;;8.43;;
7497;SDS011;3790;48.806;9.140;2023-03-01T06:13:51;14.47;;;9.53;;
7497;SDS011;3790;48.806;9.140;2023-03-01T06:18:52;13.47;;;8.97;;
7497;SDS011;3790;48.806;9.140;2023-03-01T06:23:52;12.77;;;9.10;;
7497;SDS011;3790;48.806;9.140;2023-03-01T06:28:53;16.37;;;8.93;;
7497;SDS011;3790;48.806;9.140;2023-03-01T06:33:53;16.77;;;9.40;;
7497;SDS011;3790;48.806;9.140;2023-03-01T06:38:54;18.43;;;9.60;;
7497;SDS011;3790;48.806;9.140;2023-03-01T06:43:54;15.50;;;9.63;;
7497;SDS011;3790;48.806;9.140;2023-03-01T06:48:55;19.87;;;9.20;;
7497;SDS011;3790;48.806;9.140;2023-03-01T06:53:55;13.67;;;9.73;;
7497;SDS011;3790;48.806;9.140;2023-03-01T06:58:56;18.90;;;10.43;;
7497;SDS011;3790;48.806;9.140;2023-03-01T07:03:57;18.90;;;9.43;;
7497;SDS011;3790;48.806;9.140;2023-03-01T07:08:57;18.20;;;9.67;;
7497;SDS011;3790;48.806;9.140;2023-03-01T07:13:58;16.33;;;9.73;;
7497;SDS011;3790;48.806;9.140;2023-03-01T07:19:00;16.40;;;10.57;;
7497;SDS011;3790;48.806;9.140;2023-03-01T07:24:00;12.97;;;9.60;;
7497;SDS011;3790;48.806;9.140;2023-03-01T07:29:01;14.80;;;10.50;;
7497;SDS011;3790;48.806;9.140;2023-03-01T07:34:02;13.97;;;9.63;;
7497;SDS011;3790;48.806;9.140;2023-03-01T07:39:03;15.00;;;9.47;;
7497;SDS011;3790;48.806;9.140;2023-03-01T07:44:04;17.73;;;10.80;;
7497;SDS011;3790;48.806;9.140;2023-03-01T07:49:04;17.67;;;10.70;;
7497;SDS011;3790;48.806;9.140;2023-03-01T07:54:05;14.87;;;10.47;;
7497;SDS011;3790;48.806;9.140;2023-03-01T07:59:05;16.93;;;10.63;;
7497;SDS011;3790;48.806;9.140;2023-03-01T08:04:07;16.67;;;10.43;;
7497;SDS011;3790;48.806;9.140;2023-03-01T08:09:08;21.83;;;11.13;;
7497;SDS011;3790;48.806;9.140;2023-03-01T08:14:09;19.57;;;10.47;;
7497;SDS011;3790;48.806;9.140;2023-03-01T08:19:11;18.23;;;9.93;;
7497;SDS011;3790;48.806;9.140;2023-03-01T08:24:12;17.47;;;9.67;;
7497;SDS011;3790;48.806;9.140;2023-03-01T08:29:12;14.60;;;10.33;;
7497;SDS011;3790;48.806;9.140;2023-03-01T08:34:14;14.90;;;9.80;;
7497;SDS011;3790;48.806;9.140;2023-03-01T08:39:16;15.17;;;9.80;;
7497;SDS011;3790;48.806;9.140;2023-03-01T08:44:19;18.87;;;10.50;;
7497;SDS011;3790;48.806;9.140;2023-03-01T08:49:20;14.07;;;10.53;;
7497;SDS011;3790;48.806;9.140;2023-03-01T08:54:21;18.67;;;10.20;;
7497;SDS011;3790;48.806;9.140;2023-03-01T08:59:22;17.00;;;10.53;;
7497;SDS011;3790;48.806;9.140;2023-03-01T09:04:25;15.23;;;9.80;;
7497;SDS011;3790;48.806;9.140;2023-03-01T09:09:25;16.67;;;10.00;;
7497;SDS011;3790;48.806;9.140;2023-03-01T09:14:26;16.93;;;10.13;;
7497;SDS011;3790;48.806;9.140;2023-03-01T09:19:26;16.40;;;10.03;;
7497;SDS011;3790;48.806;9.140;2023-03-01T09:24:27;14.83;;;10.23;;
7497;SDS011;3790;48.806;9.140;2023-03-01T09:29:27;12.43;;;9.70;;
7497;SDS011;3790;48.806;9.140;2023-03-01T09:34:28;17.63;;;10.03;;
7497;SDS011;3790;48.806;9.140;2023-03-01T09:39:29;20.87;;;10.50;;
7497;SDS011;3790;48.806;9.140;2023-03-01T09:49:52;12.63;;;9.00;;
7497;SDS011;3790;48.806;9.140;2023-03-01T09:55:11;15.47;;;10.23;;
7497;SDS011;3790;48.806;9.140;2023-03-01T10:00:30;16.00;;;10.80;;
7497;SDS011;3790;48.806;9.140;2023-03-01T10:11:05;14.20;;;9.63;;
7497;SDS011;3790;48.806;9.140;2023-03-01T10:16:17;15.43;;;9.83;;
7497;SDS011;3790;48.806;9.140;2023-03-01T10:21:39;18.37;;;9.43;;
7497;SDS011;3790;48.806;9.140;2023-03-01T10:26:51;16.10;;;9.50;;
7497;SDS011;3790;48.806;9.140;2023-03-01T10:31:55;15.90;;;9.60;;
7497;SDS011;3790;48.806;9.140;2023-03-01T10:36:57;14.30;;;8.50;;
7497;SDS011;3790;48.806;9.140;2023-03-01T10:42:19;19.30;;;10.53;;
7497;SDS011;3790;48.806;9.140;2023-03-01T10:47:26;14.87;;;9.40;;
7497;SDS011;3790;48.806;9.140;2023-03-01T10:52:31;14.33;;;9.17;;
7497;SDS011;3790;48.806;9.140;2023-03-01T10:57:36;16.67;;;9.30;;
7497;SDS011;3790;48.806;9.140;2023-03-01T11:02:38;12.30;;;8.53;;
7497;SDS011;3790;48.806;9.140;2023-03-01T11:07:49;13.30;;;7.97;;
7497;SDS011;3790;48.806;9.140;2023-03-01T11:12:56;11.43;;;8.07;;
7497;SDS011;3790;48.806;9.140;2023-03-01T11:18:21;13.30;;;8.47;;
7497;SDS011;3790;48.806;9.140;2023-03-01T11:23:22;12.33;;;7.87;;
7497;SDS011;3790;48.806;9.140;2023-03-01T11:28:23;13.17;;;8.57;;
7497;SDS011;3790;48.806;9.140;2023-03-01T11:38:29;10.60;;;7.50;;
7497;SDS011;3790;48.806;9.140;2023-03-01T11:43:54;9.97;;;7.30;;
7497;SDS011;3790;48.806;9.140;2023-03-01T12:15:37;8.00;;;6.37;;
7497;SDS011;3790;48.806;9.140;2023-03-01T12:31:31;7.80;;;5.73;;
7497;SDS011;3790;48.806;9.140;2023-03-01T12:42:04;6.07;;;5.10;;
7497;SDS011;3790;48.806;9.140;2023-03-01T12:52:40;8.03;;;6.43;;
7497;SDS011;3790;48.806;9.140;2023-03-01T12:57:51;7.83;;;5.80;;
7497;SDS011;3790;48.806;9.140;2023-03-01T13:08:43;9.83;;;6.83;;
7497;SDS011;3790;48.806;9.140;2023-03-01T13:14:20;10.27;;;7.03;;
7497;SDS011;3790;48.806;9.140;2023-03-01T13:19:21;9.67;;;6.20;;
7497;SDS011;3790;48.806;9.140;2023-03-01T13:29:28;9.73;;;7.17;;
7497;SDS011;3790;48.806;9.140;2023-03-01T13:34:46;14.63;;;6.90;;
7497;SDS011;3790;48.806;9.140;2023-03-01T13:39:47;11.80;;;7.50;;
7497;SDS011;3790;48.806;9.140;2023-03-01T13:44:48;12.37;;;6.70;;
7497;SDS011;3790;48.806;9.140;2023-03-01T13:55:00;8.37;;;6.50;;
7497;SDS011;3790;48.806;9.140;2023-03-01T14:00:03;9.57;;;6.33;;
7497;SDS011;3790;48.806;9.140;2023-03-01T14:05:05;7.63;;;6.20;;
7497;SDS011;3790;48.806;9.140;2023-03-01T14:10:11;23.37;;;5.93;;
7497;SDS011;3790;48.806;9.140;2023-03-01T14:20:43;8.40;;;6.23;;
7497;SDS011;3790;48.806;9.140;2023-03-01T14:25:54;8.90;;;6.53;;
7497;SDS011;3790;48.806;9.140;2023-03-01T14:30:57;13.47;;;6.30;;
7497;SDS011;3790;48.806;9.140;2023-03-01T14:41:02;10.07;;;7.20;;
7497;SDS011;3790;48.806;9.140;2023-03-01T14:46:06;7.40;;;6.37;;
7497;SDS011;3790;48.806;9.140;2023-03-01T14:51:24;10.80;;;7.10;;
7497;SDS011;3790;48.806;9.140;2023-03-01T14:56:24;17.90;;;6.77;;
7497;SDS011;3790;48.806;9.140;2023-03-01T15:01:25;10.60;;;6.93;;
7497;SDS011;3790;48.806;9.140;2023-03-01T15:06:27;11.70;;;7.33;;
7497;SDS011;3790;48.806;9.140;2023-03-01T15:11:31;10.50;;;7.97;;
7497;SDS011;3790;48.806;9.140;2023-03-01T15:16:32;12.83;;;7.87;;
7497;SDS011;3790;48.806;9.140;2023-03-01T15:21:34;11.43;;;8.10;;
7497;SDS011;3790;48.806;9.140;2023-03-01T15:26:40;9.73;;;6.73;;
7497;SDS011;3790;48.806;9.140;2023-03-01T15:31:43;13.97;;;8.20;;
7497;SDS011;3790;48.806;9.140;2023-03-01T15:36:53;11.63;;;7.80;;
7497;SDS011;3790;48.806;9.140;2023-03-01T15:41:57;11.67;;;7.17;;
7497;SDS011;3790;48.806;9.140;2023-03-01T15:47:01;14.83;;;8.03;;
7497;SDS011;3790;48.806;9.140;2023-03-01T15:52:22;11.63;;;7.80;;
7497;SDS011;3790;48.806;9.140;2023-03-01T15:57:31;11.57;;;7.43;;
7497;SDS011;3790;48.806;9.140;2023-03-01T16:02:32;10.93;;;7.43;;
7497;SDS011;3790;48.806;9.140;2023-03-01T16:07:32;10.30;;;7.57;;
7497;SDS011;3790;48.806;9.140;2023-03-01T16:12:33;8.53;;;6.70;;
7497;SDS011;3790;48.806;9.140;2023-03-01T16:17:34;9.53;;;7.20;;
7497;SDS011;3790;48.806;9.140;2023-03-01T16:22:37;13.10;;;7.43;;
7497;SDS011;3790;48.806;9.140;2023-03-01T16:27:38;9.23;;;6.73;;
7497;SDS011;3790;48.806;9.140;2023-03-01T16:32:44;29.30;;;8.03;;
7497;SDS011;3790;48.806;9.140;2023-03-01T16:37:46;14.30;;;6.93;;
7497;SDS011;3790;48.806;9.140;2023-03-01T16:42:48;10.27;;;7.53;;
7497;SDS011;3790;48.806;9.140;2023-03-01T16:47:50;15.20;;;7.20;;
7497;SDS011;3790;48.806;9.140;2023-03-01T16:52:51;12.37;;;7.10;;
7497;SDS011;3790;48.806;9.140;2023-03-01T16:57:52;20.13;;;8.33;;
7497;SDS011;3790;48.806;9.140;2023-03-01T17:02:53;20.27;;;7.57;;
7497;SDS011;3790;48.806;9.140;2023-03-01T17:07:54;10.13;;;7.10;;
7497;SDS011;3790;48.806;9.140;2023-03-01T17:12:56;12.47;;;7.43;;
7497;SDS011;3790;48.806;9.140;2023-03-01T17:17:57;14.57;;;7.53;;
7497;SDS011;3790;48.806;9.140;2023-03-01T17:22:57;13.13;;;9.30;;
7497;SDS011;3790;48.806;9.140;2023-03-01T17:27:58;10.80;;;6.37;;
7497;SDS011;3790;48.806;9.140;2023-03-01T17:32:59;10.93;;;8.27;;
7497;SDS011;3790;48.806;9.140;2023-03-01T17:37:59;12.80;;;8.10;;
7497;SDS011;3790;48.806;9.140;2023-03-01T17:43:00;14.30;;;8.07;;
7497;SDS011;3790;48.806;9.140;2023-03-01T17:48:01;12.80;;;7.67;;
7497;SDS011;3790;48.806;9.140;2023-03-01T17:53:01;11.80;;;8.30;;
7497;SDS011;3790;48.806;9.140;2023-03-01T17:58:07;12.03;;;8.40;;
7497;SDS011;3790;48.806;9.140;2023-03-01T18:03:09;12.00;;;7.90;;
7497;SDS011;3790;48.806;9.140;2023-03-01T18:08:09;23.47;;;15.50;;
7497;SDS011;3790;48.806;9.140;2023-03-01T18:13:10;16.63;;;9.67;;
7497;SDS011;3790;48.806;9.140;2023-03-01T18:18:13;16.23;;;9.47;;
7497;SDS011;3790;48.806;9.140;2023-03-01T18:23:14;15.60;;;10.07;;
7497;SDS011;3790;48.806;9.140;2023-03-01T18:28:14;15.10;;;9.13;;
7497;SDS011;3790;48.806;9.140;2023-03-01T18:33:15;11.10;;;8.30;;
7497;SDS011;3790;48.806;9.140;2023-03-01T18:38:16;13.70;;;8.73;;
7497;SDS011;3790;48.806;9.140;2023-03-01T18:43:16;13.57;;;8.33;;
7497;SDS011;3790;48.806;9.140;2023-03-01T18:48:17;14.87;;;9.10;;
7497;SDS011;3790;48.806;9.140;2023-03-01T18:53:18;12.70;;;7.53;;
7497;SDS011;3790;48.806;9.140;2023-03-01T18:58:18;13.93;;;9.17;;
7497;SDS011;3790;48.806;9.140;2023-03-01T19:03:19;13.10;;;8.70;;
7497;SDS011;3790;48.806;9.140;2023-03-01T19:08:19;17.47;;;9.10;;
7497;SDS011;3790;48.806;9.140;2023-03-01T19:13:20;15.53;;;9.80;;
7497;SDS011;3790;48.806;9.140;2023-03-01T19:18:20;16.83;;;9.20;;
7497;SDS011;3790;48.806;9.140;2023-03-01T19:23:21;12.93;;;8.77;;
7497;SDS011;3790;48.806;9.140;2023-03-01T19:28:21;15.93;;;9.07;;
7497;SDS011;3790;48.806;9.140;2023-03-01T19:33:22;15.63;;;8.80;;
7497;SDS011;3790;48.806;9.140;2023-03-01T19:38:22;14.33;;;8.87;;
7497;SDS011;3790;48.806;9.140;2023-03-01T19:43:23;15.10;;;9.67;;
7497;SDS011;3790;48.806;9.140;2023-03-01T19:48:24;15.43;;;8.70;;
7497;SDS011;3790;48.806;9.140;2023-03-01T19:53:25;17.37;;;8.93;;
7497;SDS011;3790;48.806;9.140;2023-03-01T19:58:26;17.60;;;10.80;;
7497;SDS011;3790;48.806;9.140;2023-03-01T20:03:32;14.73;;;9.63;;
7497;SDS011;3790;48.806;9.140;2023-03-01T20:08:34;15.07;;;8.97;;
7497;SDS011;3790;48.806;9.140;2023-03-01T20:13:35;18.53;;;9.43;;
7497;SDS011;3790;48.806;9.140;2023-03-01T20:18:36;15.23;;;9.27;;
7497;SDS011;3790;48.806;9.140;2023-03-01T20:23:36;16.30;;;10.27;;
7497;SDS011;3790;48.806;9.140;2023-03-01T20:28:37;14.47;;;9.63;;
7497;SDS011;3790;48.806;9.140;2023-03-01T20:33:37;15.23;;;9.40;;
7497;SDS011;3790;48.806;9.140;2023-03-01T20:38:38;19.00;;;9.83;;
7497;SDS011;3790;48.806;9.140;2023-03-01T20:43:40;11.30;;;8.33;;
7497;SDS011;3790;48.806;9.140;2023-03-01T20:48:41;12.07;;;8.73;;
7497;SDS011;3790;48.806;9.140;2023-03-01T20:53:42;12.10;;;8.47;;
7497;SDS011;3790;48.806;9.140;2023-03-01T20:58:42;15.80;;;9.00;;
7497;SDS011;3790;48.806;9.140;2023-03-01T21:03:43;12.17;;;8.77;;
7497;SDS011;3790;48.806;9.140;2023-03-01T21:08:44;16.07;;;9.20;;
7497;SDS011;3790;48.806;9.140;2023-03-01T21:13:44;13.90;;;9.23;;
7497;SDS011;3790;48.806;9.140;2023-03-01T21:18:45;16.40;;;10.30;;
7497;SDS011;3790;48.806;9.140;2023-03-01T21:23:46;15.53;;;9.53;;
7497;SDS011;3790;48.806;9.140;2023-03-01T21:28:48;16.13;;;10.10;;
7497;SDS011;3790;48.806;9.140;2023-03-01T21:33:50;16.13;;;10.50;;
7497;SDS011;3790;48.806;9.140;2023-03-01T21:38:52;15.70;;;9.97;;
7497;SDS011;3790;48.806;9.140;2023-03-01T21:43:54;13.90;;;9.57;;
7497;SDS011;3790;48.806;9.140;2023-03-01T21:48:56;19.83;;;11.00;;
7497;SDS011;3790;48.806;9.140;2023-03-01T21:53:57;25.50;;;11.07;;
7497;SDS011;3790;48.806;9.140;2023-03-01T21:59:00;16.60;;;10.67;;
7497;SDS011;3790;48.806;9.140;2023-03-01T22:04:00;18.80;;;10.57;;
7497;SDS011;3790;48.806;9.140;2023-03-01T22:09:03;17.60;;;10.27;;
7497;SDS011;3790;48.806;9.140;2023-03-01T22:14:10;20.63;;;11.13;;
7497;SDS011;3790;48.806;9.140;2023-03-01T22:19:12;15.67;;;10.13;;
7497;SDS011;3790;48.806;9.140;2023-03-01T22:24:13;21.33;;;10.87;;
7497;SDS011;3790;48.806;9.140;2023-03-01T22:29:21;19.13;;;10.87;;
7497;SDS011;3790;48.806;9.140;2023-03-01T22:34:24;15.67;;;10.27;;
7497;SDS011;3790;48.806;9.140;2023-03-01T22:39:25;15.47;;;9.33;;
7497;SDS011;3790;48.806;9.140;2023-03-01T22:44:25;15.57;;;10.17;;
7497;SDS011;3790;48.806;9.140;2023-03-01T22:49:26;18.17;;;11.00;;
7497;SDS011;3790;48.806;9.140;2023-03-01T22:54:26;18.50;;;11.10;;
7497;SDS011;3790;48.806;9.140;2023-03-01T22:59:27;17.70;;;11.10;;
7497;SDS011;3790;48.806;9.140;2023-03-01T23:04:27;21.90;;;11.23;;
7497;SDS011;3790;48.806;9.140;2023-03-01T23:09:30;19.60;;;11.30;;
7497;SDS011;3790;48.806;9.140;2023-03-01T23:14:33;18.10;;;11.03;;
7497;SDS011;3790;48.806;9.140;2023-03-01T23:19:34;18.07;;;11.23;;
7497;SDS011;3790;48.806;9.140;2023-03-01T23:24:34;19.77;;;11.37;;
7497;SDS011;3790;48.806;9.140;2023-03-01T23:29:35;17.07;;;11.67;;
7497;SDS011;3790;48.806;9.140;2023-03-01T23:34:36;18.33;;;11.17;;
7497;SDS011;3790;48.806;9.140;2023-03-01T23:39:37;19.57;;;11.10;;
7497;SDS011;3790;48.806;9.140;2023-03-01T23:44:38;17.23;;;11.20;;
7497;SDS011;3790;48.806;9.140;2023-03-01T23:49:39;17.73;;;11.33;;
7497;SDS011;3790;48.806;9.140;2023-03-01T23:54:40;17.77;;;10.70;;
7497;SDS011;3790;48.806;9.140;2023-03-01T23:59:41;22.37;;;11.63;;
